createdAt,value
2022-08-17T00:00:34.587Z,97770.75
2022-08-17T00:05:41.306Z,97765.94
2022-08-17T00:10:46.738Z,97765.94
2022-08-17T00:15:48.920Z,97775.75
2022-08-17T00:20:50.811Z,97777.28
2022-08-17T00:25:53.727Z,97783.81
2022-08-17T00:30:55.850Z,97788.94
2022-08-17T00:35:59.429Z,97787.13
2022-08-17T00:41:09.279Z,97782.97
2022-08-17T00:46:14.687Z,97782.66
2022-08-17T00:51:52.823Z,97773.72
2022-08-17T00:57:02.638Z,97774.38
2022-08-17T01:02:06.427Z,97772.81
2022-08-17T01:07:10.623Z,97777.13
2022-08-17T01:12:12.830Z,97777.75
2022-08-17T01:17:14.711Z,97781.13
2022-08-17T01:22:19.940Z,97774.97
2022-08-17T01:27:22.181Z,97781.25
2022-08-17T01:32:25.790Z,97777.66
2022-08-17T01:37:32.482Z,97778.91
2022-08-17T01:42:43.713Z,97777.34
2022-08-17T01:47:45.873Z,97790.38
2022-08-17T01:52:54.316Z,97788.66
2022-08-17T01:57:56.410Z,97785.22
2022-08-17T02:02:58.300Z,97791.19
2022-08-17T02:08:00.880Z,97803.31
2022-08-17T02:13:04.587Z,97793.38
2022-08-17T02:18:06.910Z,97798.16
2022-08-17T02:23:10.813Z,97790.94
2022-08-17T02:28:12.720Z,97791.47
2022-08-17T02:33:15.018Z,97793.78
2022-08-17T02:38:17.542Z,97791.59
2022-08-17T02:43:20.863Z,97779.72
2022-08-17T02:48:31.087Z,97782.47
2022-08-17T02:53:35.828Z,97788.44
2022-08-17T02:58:38.196Z,97795.94
2022-08-17T03:03:40.259Z,97789.03
2022-08-17T03:08:42.277Z,97789.69
2022-08-17T03:13:44.193Z,97787.25
2022-08-17T03:18:46.370Z,97787.63
2022-08-17T03:23:48.266Z,97780.91
2022-08-17T03:28:56.516Z,97789.06
2022-08-17T03:33:58.489Z,97775.22
2022-08-17T03:39:00.748Z,97778.00
2022-08-17T03:44:03.090Z,97764.63
2022-08-17T03:49:26.379Z,97763.88
2022-08-17T03:54:46.958Z,97761.41
2022-08-17T03:59:49.590Z,97767.13
2022-08-17T04:04:52.568Z,97764.31
2022-08-17T04:09:55.027Z,97761.66
2022-08-17T04:14:57.041Z,97772.13
2022-08-17T04:19:58.921Z,97773.09
2022-08-17T04:25:19.106Z,97774.25
2022-08-17T04:30:21.556Z,97781.78
2022-08-17T04:35:26.795Z,97789.19
2022-08-17T04:40:47.445Z,97787.38
2022-08-17T04:45:56.351Z,97792.31
2022-08-17T04:51:00.139Z,97802.09
2022-08-17T04:56:02.241Z,97801.81
2022-08-17T05:01:05.914Z,97796.28
2022-08-17T05:06:08.271Z,97802.16
2022-08-17T05:11:10.528Z,97804.09
2022-08-17T05:16:12.429Z,97804.91
2022-08-17T05:21:15.200Z,97803.88
2022-08-17T05:26:25.902Z,97806.84
2022-08-17T05:31:29.540Z,97815.66
2022-08-17T05:36:41.611Z,97818.34
2022-08-17T05:41:47.953Z,97804.38
2022-08-17T05:46:53.327Z,97815.53
2022-08-17T05:52:23.653Z,97809.13
2022-08-17T05:57:53.586Z,97819.97
2022-08-17T06:03:20.137Z,97816.59
2022-08-17T06:08:37.225Z,97817.78
2022-08-17T06:14:00.246Z,97820.19
2022-08-17T06:19:17.445Z,97815.28
2022-08-17T06:24:50.131Z,97827.03
2022-08-17T06:30:22.298Z,97826.56
2022-08-17T06:35:34.034Z,97824.53
2022-08-17T06:40:36.137Z,97836.22
2022-08-17T06:45:43.616Z,97821.88
2022-08-17T06:50:51.410Z,97830.16
2022-08-17T06:56:00.001Z,97836.84
2022-08-17T07:01:15.512Z,97828.25
2022-08-17T07:06:21.490Z,97834.00
2022-08-17T07:11:28.217Z,97831.97
2022-08-17T07:16:50.818Z,97836.84
2022-08-17T07:22:03.896Z,97833.84
2022-08-17T07:27:22.860Z,97842.28
2022-08-17T07:32:34.365Z,97833.16
2022-08-17T07:37:40.380Z,97837.19
2022-08-17T07:42:46.588Z,97847.69
2022-08-17T07:48:10.524Z,97844.00
2022-08-17T07:53:23.328Z,97837.81
2022-08-17T07:58:26.739Z,97851.66
2022-08-17T08:03:32.131Z,97851.84
2022-08-17T08:08:37.726Z,97843.28
2022-08-17T08:13:43.882Z,97830.13
2022-08-17T08:18:55.704Z,97837.59
2022-08-17T08:24:35.608Z,97834.31
2022-08-17T08:30:04.954Z,97838.91
2022-08-17T08:35:13.770Z,97836.88
2022-08-17T08:40:34.773Z,97846.31
2022-08-17T08:46:04.763Z,97843.53
2022-08-17T08:51:18.126Z,97838.66
2022-08-17T08:56:34.532Z,97832.25
2022-08-17T09:01:56.651Z,97825.38
2022-08-17T09:07:07.553Z,97834.81
2022-08-17T09:12:26.343Z,97838.84
2022-08-17T09:17:47.502Z,97836.19
2022-08-17T09:22:56.228Z,97837.16
2022-08-17T09:28:14.304Z,97836.56
2022-08-17T09:33:23.152Z,97836.56
2022-08-17T09:39:06.096Z,97835.59
2022-08-17T09:44:29.863Z,97825.16
2022-08-17T09:49:45.512Z,97820.53
2022-08-17T09:54:48.589Z,97823.25
2022-08-17T10:00:13.715Z,97838.72
2022-08-17T10:05:46.697Z,97818.91
2022-08-17T10:11:05.713Z,97816.25
2022-08-17T10:16:21.210Z,97807.94
2022-08-17T10:21:43.799Z,97819.13
2022-08-17T10:26:57.252Z,97822.53
2022-08-17T10:32:07.168Z,97813.75
2022-08-17T10:37:35.612Z,97810.63
2022-08-17T10:42:59.187Z,97810.63
2022-08-17T10:48:22.631Z,97792.56
2022-08-17T10:53:33.763Z,97789.03
2022-08-17T10:58:47.796Z,97792.84
2022-08-17T11:03:56.001Z,97783.94
2022-08-17T11:09:05.568Z,97798.63
2022-08-17T11:14:33.353Z,97792.84
2022-08-17T11:19:47.278Z,97788.41
2022-08-17T11:24:54.113Z,97778.06
2022-08-17T11:30:06.441Z,97780.53
2022-08-17T11:35:23.788Z,97780.84
2022-08-17T11:40:36.511Z,97781.84
2022-08-17T11:46:16.085Z,97773.06
2022-08-17T11:51:36.414Z,97769.16
2022-08-17T11:56:41.223Z,97791.53
2022-08-17T12:01:57.231Z,97773.81
2022-08-17T12:07:18.601Z,97777.84
2022-08-17T12:12:29.732Z,97770.28
2022-08-17T12:17:40.167Z,97752.78
2022-08-17T12:22:53.489Z,97758.63
2022-08-17T12:28:06.119Z,97757.53
2022-08-17T12:33:25.629Z,97749.78
2022-08-17T12:38:36.545Z,97745.94
2022-08-17T12:43:38.504Z,97747.28
2022-08-17T12:48:40.405Z,97747.25
2022-08-17T12:54:02.363Z,97743.75
2022-08-17T12:59:04.292Z,97757.81
2022-08-17T13:04:07.263Z,97741.72
2022-08-17T13:09:18.535Z,97732.59
2022-08-17T13:14:20.664Z,97735.22
2022-08-17T13:19:40.038Z,97742.25
2022-08-17T13:24:58.425Z,97731.91
2022-08-17T13:30:07.538Z,97731.19
2022-08-17T13:35:39.846Z,97729.34
2022-08-17T13:40:49.340Z,97730.97
2022-08-17T13:45:52.461Z,97741.91
2022-08-17T13:50:57.059Z,97736.28
2022-08-17T13:56:37.621Z,97739.97
2022-08-17T14:01:39.548Z,97750.78
2022-08-17T14:06:58.075Z,97733.25
2022-08-17T14:12:02.204Z,97739.31
2022-08-17T14:17:05.789Z,97729.56
2022-08-17T14:22:19.046Z,97733.25
2022-08-17T14:27:21.899Z,97731.91
2022-08-17T14:32:30.536Z,97721.97
2022-08-17T14:37:34.502Z,97713.31
2022-08-17T14:42:38.679Z,97694.44
2022-08-17T14:47:41.851Z,97695.16
2022-08-17T14:52:44.072Z,97704.81
2022-08-17T14:57:48.483Z,97718.06
2022-08-17T15:02:54.404Z,97704.28
2022-08-17T15:07:56.445Z,97721.50
2022-08-17T15:12:59.720Z,97717.94
2022-08-17T15:18:02.598Z,97717.69
2022-08-17T15:23:07.209Z,97711.84
2022-08-17T15:28:10.129Z,97715.19
2022-08-17T15:33:29.787Z,97703.59
2022-08-17T15:38:39.936Z,97704.69
2022-08-17T15:43:44.884Z,97696.22
2022-08-17T15:48:51.730Z,97691.44
2022-08-17T15:53:58.920Z,97685.47
2022-08-17T15:59:02.145Z,97681.69
2022-08-17T16:04:07.069Z,97676.25
2022-08-17T16:09:11.530Z,97671.53
2022-08-17T16:14:14.039Z,97679.31
2022-08-17T16:19:16.545Z,97682.72
2022-08-17T16:24:18.482Z,97679.72
2022-08-17T16:29:21.460Z,97679.09
2022-08-17T16:34:23.689Z,97667.72
2022-08-17T16:39:28.195Z,97672.84
2022-08-17T16:44:32.074Z,97680.16
2022-08-17T16:49:36.941Z,97685.91
2022-08-17T16:54:43.946Z,97673.72
2022-08-17T16:59:50.289Z,97680.22
2022-08-17T17:05:01.707Z,97681.03
2022-08-17T17:10:32.182Z,97685.38
2022-08-17T17:15:58.974Z,97686.56
2022-08-17T17:21:01.579Z,97692.84
2022-08-17T17:26:13.697Z,97689.34
2022-08-17T17:31:24.021Z,97692.78
2022-08-17T17:36:33.021Z,97711.28
2022-08-17T17:41:47.395Z,97712.38
2022-08-17T17:46:54.549Z,97696.69
2022-08-17T17:52:14.394Z,97698.31
2022-08-17T17:57:57.868Z,97711.09
2022-08-17T18:03:21.222Z,97721.13
2022-08-17T18:08:40.368Z,97710.47
2022-08-17T18:14:14.883Z,97711.97
2022-08-17T18:19:22.665Z,97713.81
2022-08-17T18:24:35.101Z,97717.66
2022-08-17T18:29:45.357Z,97726.00
2022-08-17T18:34:50.710Z,97730.56
2022-08-17T18:39:53.274Z,97720.63
2022-08-17T18:44:55.830Z,97721.13
2022-08-17T18:50:19.006Z,97711.09
2022-08-17T18:55:30.433Z,97714.63
2022-08-17T19:00:40.554Z,97724.22
2022-08-17T19:05:44.107Z,97713.75
2022-08-17T19:10:59.182Z,97722.09
2022-08-17T19:16:15.842Z,97717.25
2022-08-17T19:21:37.476Z,97707.63
2022-08-17T19:26:53.473Z,97721.25
2022-08-17T19:31:59.730Z,97722.22
2022-08-17T19:37:21.049Z,97715.59
2022-08-17T19:42:53.210Z,97709.47
2022-08-17T19:48:25.277Z,97717.84
2022-08-17T19:54:01.606Z,97724.41
2022-08-17T19:59:12.548Z,97705.84
2022-08-17T20:04:31.925Z,97703.75
2022-08-17T20:09:44.655Z,97707.16
2022-08-17T20:14:55.107Z,97693.34
2022-08-17T20:20:26.859Z,97700.88
2022-08-17T20:25:42.583Z,97691.13
2022-08-17T20:30:48.322Z,97702.34
2022-08-17T20:36:17.265Z,97685.84
2022-08-17T20:41:22.331Z,97690.66
2022-08-17T20:46:36.454Z,97682.34
2022-08-17T20:51:43.173Z,97689.34
2022-08-17T20:57:03.223Z,97702.91
2022-08-17T21:02:22.264Z,97692.63
2022-08-17T21:07:33.146Z,97696.00
2022-08-17T21:12:50.137Z,97703.34
2022-08-17T21:18:10.201Z,97709.75
2022-08-17T21:23:17.995Z,97726.72
2022-08-17T21:28:23.211Z,97720.03
2022-08-17T21:33:39.116Z,97733.50
2022-08-17T21:38:57.376Z,97742.34
2022-08-17T21:44:30.490Z,97735.41
2022-08-17T21:49:37.850Z,97748.97
2022-08-17T21:54:44.518Z,97739.50
2022-08-17T21:59:53.429Z,97741.22
2022-08-17T22:05:01.832Z,97748.50
2022-08-17T22:10:05.709Z,97743.91
2022-08-17T22:15:09.706Z,97739.84
2022-08-17T22:20:17.412Z,97737.06
2022-08-17T22:25:24.729Z,97733.53
2022-08-17T22:30:59.152Z,97736.41
2022-08-17T22:36:25.187Z,97728.34
2022-08-17T22:41:36.002Z,97748.31
2022-08-17T22:46:47.380Z,97742.53
2022-08-17T22:51:49.322Z,97756.53
2022-08-17T22:57:23.551Z,97755.56
2022-08-17T23:02:32.216Z,97742.03
2022-08-17T23:07:34.121Z,97733.81
2022-08-17T23:12:39.969Z,97739.56
2022-08-17T23:17:42.181Z,97736.59
2022-08-17T23:22:52.067Z,97733.88
2022-08-17T23:27:57.461Z,97736.69
2022-08-17T23:33:02.578Z,97743.53
2022-08-17T23:38:05.904Z,97741.34
2022-08-17T23:43:25.670Z,97737.50
2022-08-17T23:48:35.986Z,97752.31
2022-08-17T23:53:47.659Z,97745.25
2022-08-17T23:58:49.561Z,97744.63
